• Join FlightAware (Why Join?)
  • Login
  • US Flag 
02:11AM EDT


 

Airport Tracker/Info


-or-


 

Live Flight TrackerFlight Track Log ✈ N510SR ✈ 28-Jul-2013 ✈ KLEB - KTEB

Flight Track Log - Related Links

Times and Time Zones

All times are in EDT time to prevent confusion due to time zone crossing. See the N510SR flight status page for this flight to view local times or setup timezone preferences in your user account.

Time Position Orientation Groundspeed Altitude Reporting Facility
EDT Latitude Longitude Course Direction KTS MPH feet Rate Location/Type
02:58PM 43.5819 -72.3972 233° Southwest 390 449 5,000  Level Boston Center
02:59PM 43.5342 -72.4803 232° Southwest 325 374 7,100 1,020 Climbing Boston Center
03:00PM 43.4192 -72.6372 233° Southwest  Level FlightAware Approximate
03:00PM 43.5028 -72.5689 244° Southwest 296 341 7,100  Level Boston Center
03:01PM 43.4733 -72.6633 247° West 275 316 7,800 1,320 Climbing Boston Center
03:02PM 43.4419 -72.7517 244° Southwest 267 307 9,900 2,400 Climbing Boston Center
03:03PM 43.3978 -72.8631 241° Southwest 283 326 12,700 4,020 Climbing Boston Center
03:04PM 43.3517 -72.9683 239° Southwest 307 353 18,000 2,400 Climbing Boston Center
03:05PM 43.3011 -73.0706 236° Southwest 330 380 17,500  Descending Boston Center
03:06PM 43.2317 -73.1667 225° Southwest 347 399 18,100 240 Climbing Boston Center
03:07PM 43.1603 -73.2628 224° Southwest 359 413 18,100  Level Boston Center
03:08PM 43.0864 -73.3611 224° Southwest 364 419 18,100 -240 Level Boston Center
03:09PM 43.0150 -73.4539 224° Southwest 364 419 17,700 -960 Descending Boston Center
03:10PM 42.9431 -73.5461 223° Southwest 359 413 16,300 -1,380 Descending Boston Center
03:11PM 42.8775 -73.6358 225° Southwest 349 402 14,900 -1,140 Descending Boston Center
03:12PM 42.8122 -73.7167 222° Southwest 322 371 14,000 -480 Descending Boston Center
03:13PM 42.7467 -73.8028 224° Southwest 322 371 14,000  Level Boston Center
03:14PM 42.6708 -73.8661 212° Southwest 328 377 14,000  Level Boston Center
03:15PM 42.5931 -73.9178 206° Southwest 328 377 14,000  Level Boston Center
03:16PM 42.5236 -73.9697 209° Southwest 328 377 14,000  Level Boston Center
03:17PM 42.4372 -74.0353 209° Southwest 328 377 14,000  Level Boston Center
03:18PM 42.3656 -74.0867 208° Southwest 328 377 14,000  Level Boston Center
03:19PM 42.2811 -74.1519 210° Southwest 328 377 14,000  Level Boston Center
03:20PM 42.2117 -74.2033 209° Southwest 328 377 14,000  Level Boston Center
03:21PM 42.1272 -74.2653 209° Southwest 328 377 14,000  Level Boston Center
03:22PM 42.0578 -74.3164 209° Southwest 322 371 14,000  Level Boston Center
03:23PM 41.9711 -74.3781 208° Southwest 322 371 14,000  Level Boston Center
03:24PM 41.9017 -74.4261 207° Southwest 322 371 14,000 -900 Level Boston Center
03:25PM 41.8169 -74.4903 209° Southwest 317 365 12,200 -1,800 Descending Boston Center
03:26PM 41.7456 -74.5269 201° Southwest 312 359 10,400 -1,920 Descending Boston Center
03:27PM 41.6533 -74.5461 189° South 307 353 8,500 -1,740 Descending Boston Center
03:28PM 41.5864 -74.5606 189° South 291 335 7,000 -1,260 Descending Boston Center
03:29PM 41.5092 -74.5747 188° South 271 312 6,000 -360 Descending Boston Center
03:31PM 41.3500 -74.6000 187° South 261 300 6,000 -120 Level New York TRACON
03:32PM 41.3000 -74.5167 129° Southeast 273 314 5,700 -960 Descending New York TRACON
03:33PM 41.2500 -74.4500 135° Southeast 266 306 4,100 -900 Descending New York TRACON
03:34PM 41.2167 -74.3667 118° Southeast 288 331 4,000 -180 Descending New York TRACON
03:35PM 41.1667 -74.2833 129° Southeast 261 300 3,800 -540 Descending New York TRACON
03:36PM 41.1333 -74.2167 124° Southeast 257 296 3,000 -420 Descending New York TRACON
03:37PM 41.0833 -74.1500 135° Southeast 231 266 3,000 -60 Level New York TRACON
03:38PM 41.0500 -74.0833 124° Southeast 221 254 2,900 -540 Descending New York TRACON
03:39PM 41.0000 -74.0500 153° Southeast 191 220 2,000 -720 Descending New York TRACON
03:40PM 40.9500 -74.0500 180° South 181 208 1,500 -540 Descending New York TRACON
03:41PM 40.9000 -74.0500 180° South 167 192 1,000 -540 Descending New York TRACON